sensor_id;sensor_type;location;lat;lon;timestamp;temperature;humidity
52709;DHT22;38606;52.986;6.980;2023-05-20T00:01:27;11.20;99.90
52709;DHT22;38606;52.986;6.980;2023-05-20T00:03:52;11.10;99.90
52709;DHT22;38606;52.986;6.980;2023-05-20T00:06:18;11.20;99.90
52709;DHT22;38606;52.986;6.980;2023-05-20T00:08:44;10.40;99.90
52709;DHT22;38606;52.986;6.980;2023-05-20T00:11:09;11.00;99.90
52709;DHT22;38606;52.986;6.980;2023-05-20T00:13:35;11.10;99.90
52709;DHT22;38606;52.986;6.980;2023-05-20T00:16:01;11.10;99.90
52709;DHT22;38606;52.986;6.980;2023-05-20T00:18:27;10.90;99.90
52709;DHT22;38606;52.986;6.980;2023-05-20T00:20:53;11.00;99.90
52709;DHT22;38606;52.986;6.980;2023-05-20T00:23:19;10.90;99.90
52709;DHT22;38606;52.986;6.980;2023-05-20T00:25:45;11.20;99.90
52709;DHT22;38606;52.986;6.980;2023-05-20T00:28:11;10.90;99.90
52709;DHT22;38606;52.986;6.980;2023-05-20T00:30:39;10.90;99.90
52709;DHT22;38606;52.986;6.980;2023-05-20T00:33:06;10.90;99.90
52709;DHT22;38606;52.986;6.980;2023-05-20T00:35:32;11.10;99.90
52709;DHT22;38606;52.986;6.980;2023-05-20T00:37:58;10.80;99.90
52709;DHT22;38606;52.986;6.980;2023-05-20T00:40:23;11.00;99.90
52709;DHT22;38606;52.986;6.980;2023-05-20T00:42:49;10.70;99.90
52709;DHT22;38606;52.986;6.980;2023-05-20T00:45:16;11.00;99.90
52709;DHT22;38606;52.986;6.980;2023-05-20T00:47:42;11.00;99.90
52709;DHT22;38606;52.986;6.980;2023-05-20T00:50:08;10.80;99.90
52709;DHT22;38606;52.986;6.980;2023-05-20T00:52:35;10.90;99.90
52709;DHT22;38606;52.986;6.980;2023-05-20T00:55:02;11.10;99.90
52709;DHT22;38606;52.986;6.980;2023-05-20T00:57:28;11.00;99.90
52709;DHT22;38606;52.986;6.980;2023-05-20T00:59:54;11.10;99.90
52709;DHT22;38606;52.986;6.980;2023-05-20T01:02:20;10.80;99.90
52709;DHT22;38606;52.986;6.980;2023-05-20T01:04:46;11.10;99.90
52709;DHT22;38606;52.986;6.980;2023-05-20T01:07:14;11.10;99.90
52709;DHT22;38606;52.986;6.980;2023-05-20T01:09:40;10.90;99.90
52709;DHT22;38606;52.986;6.980;2023-05-20T01:14:39;10.90;99.90
52709;DHT22;38606;52.986;6.980;2023-05-20T01:17:09;10.80;99.90
52709;DHT22;38606;52.986;6.980;2023-05-20T01:19:40;11.00;99.90
52709;DHT22;38606;52.986;6.980;2023-05-20T01:22:09;10.90;99.90
52709;DHT22;38606;52.986;6.980;2023-05-20T01:24:42;10.90;99.90
52709;DHT22;38606;52.986;6.980;2023-05-20T01:27:12;10.70;99.90
52709;DHT22;38606;52.986;6.980;2023-05-20T01:29:41;10.80;99.90
52709;DHT22;38606;52.986;6.980;2023-05-20T01:32:27;10.70;99.90
52709;DHT22;38606;52.986;6.980;2023-05-20T01:34:53;11.10;99.90
52709;DHT22;38606;52.986;6.980;2023-05-20T01:37:21;10.90;99.90
52709;DHT22;38606;52.986;6.980;2023-05-20T01:39:48;11.10;99.90
52709;DHT22;38606;52.986;6.980;2023-05-20T01:42:16;10.90;99.90
52709;DHT22;38606;52.986;6.980;2023-05-20T01:44:42;10.90;99.90
52709;DHT22;38606;52.986;6.980;2023-05-20T01:47:08;10.90;99.90
52709;DHT22;38606;52.986;6.980;2023-05-20T01:49:34;10.90;99.90
52709;DHT22;38606;52.986;6.980;2023-05-20T01:51:59;11.00;99.90
52709;DHT22;38606;52.986;6.980;2023-05-20T01:54:25;10.90;99.90
52709;DHT22;38606;52.986;6.980;2023-05-20T01:56:51;11.00;99.90
52709;DHT22;38606;52.986;6.980;2023-05-20T01:59:17;11.00;99.90
52709;DHT22;38606;52.986;6.980;2023-05-20T02:01:43;10.60;99.90
52709;DHT22;38606;52.986;6.980;2023-05-20T02:04:08;11.00;99.90
52709;DHT22;38606;52.986;6.980;2023-05-20T02:06:34;10.90;99.90
52709;DHT22;38606;52.986;6.980;2023-05-20T02:09:01;10.90;99.90
52709;DHT22;38606;52.986;6.980;2023-05-20T02:11:26;11.20;99.90
52709;DHT22;38606;52.986;6.980;2023-05-20T02:13:52;11.00;99.90
52709;DHT22;38606;52.986;6.980;2023-05-20T02:16:18;11.10;99.90
52709;DHT22;38606;52.986;6.980;2023-05-20T02:18:44;11.10;99.90
52709;DHT22;38606;52.986;6.980;2023-05-20T02:21:09;11.10;99.90
52709;DHT22;38606;52.986;6.980;2023-05-20T02:23:35;11.00;99.90
52709;DHT22;38606;52.986;6.980;2023-05-20T02:26:02;11.10;99.90
52709;DHT22;38606;52.986;6.980;2023-05-20T02:28:28;11.30;99.90
52709;DHT22;38606;52.986;6.980;2023-05-20T02:30:53;11.10;99.90
52709;DHT22;38606;52.986;6.980;2023-05-20T02:33:19;11.10;99.90
52709;DHT22;38606;52.986;6.980;2023-05-20T02:35:45;11.00;99.90
52709;DHT22;38606;52.986;6.980;2023-05-20T02:38:11;11.20;99.90
52709;DHT22;38606;52.986;6.980;2023-05-20T02:40:37;11.10;99.90
52709;DHT22;38606;52.986;6.980;2023-05-20T02:43:03;11.20;99.90
52709;DHT22;38606;52.986;6.980;2023-05-20T02:45:29;11.10;99.90
52709;DHT22;38606;52.986;6.980;2023-05-20T02:47:55;11.10;99.90
52709;DHT22;38606;52.986;6.980;2023-05-20T02:50:21;11.20;99.90
52709;DHT22;38606;52.986;6.980;2023-05-20T02:52:46;11.30;99.90
52709;DHT22;38606;52.986;6.980;2023-05-20T02:55:13;11.30;99.90
52709;DHT22;38606;52.986;6.980;2023-05-20T02:57:39;11.20;99.90
52709;DHT22;38606;52.986;6.980;2023-05-20T03:00:05;11.10;99.90
52709;DHT22;38606;52.986;6.980;2023-05-20T03:02:32;11.30;99.90
52709;DHT22;38606;52.986;6.980;2023-05-20T03:04:58;11.30;99.90
52709;DHT22;38606;52.986;6.980;2023-05-20T03:07:24;11.30;99.90
52709;DHT22;38606;52.986;6.980;2023-05-20T03:09:50;11.40;99.90
52709;DHT22;38606;52.986;6.980;2023-05-20T03:12:17;11.30;99.90
52709;DHT22;38606;52.986;6.980;2023-05-20T03:14:43;11.30;99.90
52709;DHT22;38606;52.986;6.980;2023-05-20T03:17:09;11.20;99.90
52709;DHT22;38606;52.986;6.980;2023-05-20T03:19:35;11.30;99.90
52709;DHT22;38606;52.986;6.980;2023-05-20T03:22:01;11.50;99.90
52709;DHT22;38606;52.986;6.980;2023-05-20T03:24:27;11.40;99.90
52709;DHT22;38606;52.986;6.980;2023-05-20T03:26:53;11.60;99.90
52709;DHT22;38606;52.986;6.980;2023-05-20T03:29:22;11.30;99.90
52709;DHT22;38606;52.986;6.980;2023-05-20T03:31:47;11.40;99.90
52709;DHT22;38606;52.986;6.980;2023-05-20T03:34:13;11.50;99.90
52709;DHT22;38606;52.986;6.980;2023-05-20T03:36:39;11.60;99.90
52709;DHT22;38606;52.986;6.980;2023-05-20T03:39:05;11.60;99.90
52709;DHT22;38606;52.986;6.980;2023-05-20T03:41:31;11.40;99.90
52709;DHT22;38606;52.986;6.980;2023-05-20T03:43:57;11.50;99.90
52709;DHT22;38606;52.986;6.980;2023-05-20T03:46:23;11.50;99.90
52709;DHT22;38606;52.986;6.980;2023-05-20T03:48:48;11.20;99.90
52709;DHT22;38606;52.986;6.980;2023-05-20T03:51:14;11.40;99.90
52709;DHT22;38606;52.986;6.980;2023-05-20T03:53:40;11.40;99.90
52709;DHT22;38606;52.986;6.980;2023-05-20T03:56:05;11.60;99.90
52709;DHT22;38606;52.986;6.980;2023-05-20T03:58:31;11.60;99.90
52709;DHT22;38606;52.986;6.980;2023-05-20T04:00:57;11.40;99.90
52709;DHT22;38606;52.986;6.980;2023-05-20T04:03:23;11.50;99.90
52709;DHT22;38606;52.986;6.980;2023-05-20T04:05:49;11.40;99.90
52709;DHT22;38606;52.986;6.980;2023-05-20T04:08:15;11.60;99.90
52709;DHT22;38606;52.986;6.980;2023-05-20T04:10:43;11.50;99.90
52709;DHT22;38606;52.986;6.980;2023-05-20T04:13:10;11.50;99.90
52709;DHT22;38606;52.986;6.980;2023-05-20T04:15:36;11.70;99.90
52709;DHT22;38606;52.986;6.980;2023-05-20T04:18:03;11.50;99.90
52709;DHT22;38606;52.986;6.980;2023-05-20T04:20:30;11.50;99.90
52709;DHT22;38606;52.986;6.980;2023-05-20T04:22:56;11.40;99.90
52709;DHT22;38606;52.986;6.980;2023-05-20T04:25:22;11.50;99.90
52709;DHT22;38606;52.986;6.980;2023-05-20T04:27:48;11.70;99.90
52709;DHT22;38606;52.986;6.980;2023-05-20T04:30:14;11.60;99.90
52709;DHT22;38606;52.986;6.980;2023-05-20T04:32:43;11.40;99.90
52709;DHT22;38606;52.986;6.980;2023-05-20T04:35:08;11.50;99.90
52709;DHT22;38606;52.986;6.980;2023-05-20T04:37:37;11.40;99.90
52709;DHT22;38606;52.986;6.980;2023-05-20T04:40:04;11.40;99.90
52709;DHT22;38606;52.986;6.980;2023-05-20T04:42:33;11.50;99.90
52709;DHT22;38606;52.986;6.980;2023-05-20T04:45:00;11.50;99.90
52709;DHT22;38606;52.986;6.980;2023-05-20T04:47:29;11.70;99.90
52709;DHT22;38606;52.986;6.980;2023-05-20T04:49:56;12.00;99.90
52709;DHT22;38606;52.986;6.980;2023-05-20T04:52:25;11.80;99.90
52709;DHT22;38606;52.986;6.980;2023-05-20T04:54:52;11.70;99.90
52709;DHT22;38606;52.986;6.980;2023-05-20T04:57:18;11.80;99.90
52709;DHT22;38606;52.986;6.980;2023-05-20T04:59:46;11.70;99.90
52709;DHT22;38606;52.986;6.980;2023-05-20T05:02:12;12.00;99.90
52709;DHT22;38606;52.986;6.980;2023-05-20T05:04:38;12.00;99.90
52709;DHT22;38606;52.986;6.980;2023-05-20T05:07:04;12.20;99.90
52709;DHT22;38606;52.986;6.980;2023-05-20T05:09:29;12.00;99.90
52709;DHT22;38606;52.986;6.980;2023-05-20T05:11:55;12.30;99.90
52709;DHT22;38606;52.986;6.980;2023-05-20T05:14:21;12.10;99.90
52709;DHT22;38606;52.986;6.980;2023-05-20T05:16:48;12.30;99.90
52709;DHT22;38606;52.986;6.980;2023-05-20T05:19:14;12.40;99.90
52709;DHT22;38606;52.986;6.980;2023-05-20T05:21:40;12.50;99.90
52709;DHT22;38606;52.986;6.980;2023-05-20T05:24:06;12.70;99.90
52709;DHT22;38606;52.986;6.980;2023-05-20T05:26:32;12.60;99.90
52709;DHT22;38606;52.986;6.980;2023-05-20T05:28:57;12.70;99.90
52709;DHT22;38606;52.986;6.980;2023-05-20T05:31:23;12.80;99.90
52709;DHT22;38606;52.986;6.980;2023-05-20T05:33:49;12.70;99.90
52709;DHT22;38606;52.986;6.980;2023-05-20T05:36:15;12.90;99.90
52709;DHT22;38606;52.986;6.980;2023-05-20T05:38:41;12.60;99.90
52709;DHT22;38606;52.986;6.980;2023-05-20T05:41:07;13.00;99.90
52709;DHT22;38606;52.986;6.980;2023-05-20T05:43:33;12.90;99.90
52709;DHT22;38606;52.986;6.980;2023-05-20T05:45:59;13.00;99.90
52709;DHT22;38606;52.986;6.980;2023-05-20T05:48:25;12.80;99.90
52709;DHT22;38606;52.986;6.980;2023-05-20T05:50:51;13.10;99.90
52709;DHT22;38606;52.986;6.980;2023-05-20T05:53:17;13.10;99.90
52709;DHT22;38606;52.986;6.980;2023-05-20T05:55:45;13.40;99.90
52709;DHT22;38606;52.986;6.980;2023-05-20T05:58:10;13.30;99.90
52709;DHT22;38606;52.986;6.980;2023-05-20T06:00:36;13.50;99.90
52709;DHT22;38606;52.986;6.980;2023-05-20T06:03:02;13.30;99.90
52709;DHT22;38606;52.986;6.980;2023-05-20T06:05:28;13.50;99.90
52709;DHT22;38606;52.986;6.980;2023-05-20T06:07:54;13.40;99.90
52709;DHT22;38606;52.986;6.980;2023-05-20T06:10:20;13.60;99.90
52709;DHT22;38606;52.986;6.980;2023-05-20T06:12:45;13.70;99.90
52709;DHT22;38606;52.986;6.980;2023-05-20T06:15:11;13.90;99.90
52709;DHT22;38606;52.986;6.980;2023-05-20T06:17:37;13.70;99.90
52709;DHT22;38606;52.986;6.980;2023-05-20T06:20:03;13.80;99.90
52709;DHT22;38606;52.986;6.980;2023-05-20T06:22:29;13.80;99.90
52709;DHT22;38606;52.986;6.980;2023-05-20T06:24:55;14.00;99.90
52709;DHT22;38606;52.986;6.980;2023-05-20T06:27:25;14.10;99.90
52709;DHT22;38606;52.986;6.980;2023-05-20T06:29:50;14.20;99.90
52709;DHT22;38606;52.986;6.980;2023-05-20T06:32:16;14.00;99.90
52709;DHT22;38606;52.986;6.980;2023-05-20T06:34:42;14.40;99.90
52709;DHT22;38606;52.986;6.980;2023-05-20T06:37:07;14.40;99.90
52709;DHT22;38606;52.986;6.980;2023-05-20T06:39:33;14.30;99.90
52709;DHT22;38606;52.986;6.980;2023-05-20T06:41:59;14.60;99.90
52709;DHT22;38606;52.986;6.980;2023-05-20T06:44:25;14.50;99.90
52709;DHT22;38606;52.986;6.980;2023-05-20T06:46:50;14.70;99.90
52709;DHT22;38606;52.986;6.980;2023-05-20T06:49:16;14.90;99.90
52709;DHT22;38606;52.986;6.980;2023-05-20T06:51:42;14.70;99.90
52709;DHT22;38606;52.986;6.980;2023-05-20T06:54:08;15.00;99.90
52709;DHT22;38606;52.986;6.980;2023-05-20T06:56:34;14.90;99.90
52709;DHT22;38606;52.986;6.980;2023-05-20T06:59:00;15.10;99.90
52709;DHT22;38606;52.986;6.980;2023-05-20T07:01:25;15.00;99.90
52709;DHT22;38606;52.986;6.980;2023-05-20T07:03:51;15.30;99.90
52709;DHT22;38606;52.986;6.980;2023-05-20T07:06:17;15.40;99.90
52709;DHT22;38606;52.986;6.980;2023-05-20T07:08:43;15.40;99.90
52709;DHT22;38606;52.986;6.980;2023-05-20T07:11:08;15.30;99.90
52709;DHT22;38606;52.986;6.980;2023-05-20T07:13:34;15.20;99.90
52709;DHT22;38606;52.986;6.980;2023-05-20T07:16:00;15.40;99.90
52709;DHT22;38606;52.986;6.980;2023-05-20T07:18:26;15.50;99.90
52709;DHT22;38606;52.986;6.980;2023-05-20T07:20:52;15.50;99.90
52709;DHT22;38606;52.986;6.980;2023-05-20T07:23:18;15.80;99.90
52709;DHT22;38606;52.986;6.980;2023-05-20T07:25:44;15.50;99.90
52709;DHT22;38606;52.986;6.980;2023-05-20T07:28:10;15.60;99.90
52709;DHT22;38606;52.986;6.980;2023-05-20T07:30:35;16.30;99.90
52709;DHT22;38606;52.986;6.980;2023-05-20T07:33:01;16.10;99.90
52709;DHT22;38606;52.986;6.980;2023-05-20T07:35:27;16.20;99.90
52709;DHT22;38606;52.986;6.980;2023-05-20T07:37:53;16.20;99.90
52709;DHT22;38606;52.986;6.980;2023-05-20T07:40:19;16.10;99.90
52709;DHT22;38606;52.986;6.980;2023-05-20T07:42:44;16.40;99.90
52709;DHT22;38606;52.986;6.980;2023-05-20T07:45:10;16.80;99.90
52709;DHT22;38606;52.986;6.980;2023-05-20T07:47:36;16.80;99.90
52709;DHT22;38606;52.986;6.980;2023-05-20T07:50:02;16.70;99.90
52709;DHT22;38606;52.986;6.980;2023-05-20T07:52:28;16.70;99.90
52709;DHT22;38606;52.986;6.980;2023-05-20T07:54:53;17.00;99.90
52709;DHT22;38606;52.986;6.980;2023-05-20T07:57:19;17.00;99.90
52709;DHT22;38606;52.986;6.980;2023-05-20T07:59:45;17.20;99.90
52709;DHT22;38606;52.986;6.980;2023-05-20T08:02:11;17.00;99.90
52709;DHT22;38606;52.986;6.980;2023-05-20T08:04:37;17.00;99.90
52709;DHT22;38606;52.986;6.980;2023-05-20T08:07:02;17.30;99.90
52709;DHT22;38606;52.986;6.980;2023-05-20T08:09:30;17.20;99.90
52709;DHT22;38606;52.986;6.980;2023-05-20T08:11:56;17.30;99.90
52709;DHT22;38606;52.986;6.980;2023-05-20T08:14:21;17.10;99.90
52709;DHT22;38606;52.986;6.980;2023-05-20T08:16:47;17.40;99.90
52709;DHT22;38606;52.986;6.980;2023-05-20T08:19:13;17.50;99.90
52709;DHT22;38606;52.986;6.980;2023-05-20T08:21:38;17.50;99.90
52709;DHT22;38606;52.986;6.980;2023-05-20T08:24:05;17.60;99.90
52709;DHT22;38606;52.986;6.980;2023-05-20T08:26:30;17.80;99.90
52709;DHT22;38606;52.986;6.980;2023-05-20T08:28:56;18.10;99.90
52709;DHT22;38606;52.986;6.980;2023-05-20T08:31:22;18.20;99.90
52709;DHT22;38606;52.986;6.980;2023-05-20T08:33:47;18.10;99.90
52709;DHT22;38606;52.986;6.980;2023-05-20T08:36:13;18.30;99.90
52709;DHT22;38606;52.986;6.980;2023-05-20T08:38:39;18.20;99.90
52709;DHT22;38606;52.986;6.980;2023-05-20T08:41:05;18.20;99.90
52709;DHT22;38606;52.986;6.980;2023-05-20T08:43:31;18.00;99.90
52709;DHT22;38606;52.986;6.980;2023-05-20T08:45:57;18.30;99.90
52709;DHT22;38606;52.986;6.980;2023-05-20T08:48:25;18.40;99.90
52709;DHT22;38606;52.986;6.980;2023-05-20T08:50:52;18.30;99.90
52709;DHT22;38606;52.986;6.980;2023-05-20T08:53:21;18.60;99.90
52709;DHT22;38606;52.986;6.980;2023-05-20T08:55:55;18.70;99.90
52709;DHT22;38606;52.986;6.980;2023-05-20T08:58:23;18.60;99.90
52709;DHT22;38606;52.986;6.980;2023-05-20T09:00:52;18.70;99.90
52709;DHT22;38606;52.986;6.980;2023-05-20T09:03:18;18.60;99.90
52709;DHT22;38606;52.986;6.980;2023-05-20T09:05:48;18.70;99.90
52709;DHT22;38606;52.986;6.980;2023-05-20T09:08:13;18.70;99.90
52709;DHT22;38606;52.986;6.980;2023-05-20T09:10:40;18.90;99.90
52709;DHT22;38606;52.986;6.980;2023-05-20T09:13:07;18.70;99.90
52709;DHT22;38606;52.986;6.980;2023-05-20T09:15:34;18.80;99.90
52709;DHT22;38606;52.986;6.980;2023-05-20T09:18:01;18.70;99.90
52709;DHT22;38606;52.986;6.980;2023-05-20T09:20:28;19.10;99.90
52709;DHT22;38606;52.986;6.980;2023-05-20T09:23:01;18.80;99.90
52709;DHT22;38606;52.986;6.980;2023-05-20T09:25:27;18.90;99.90
52709;DHT22;38606;52.986;6.980;2023-05-20T09:27:56;18.90;99.90
52709;DHT22;38606;52.986;6.980;2023-05-20T09:30:23;19.30;99.90
52709;DHT22;38606;52.986;6.980;2023-05-20T09:32:56;19.30;99.90
52709;DHT22;38606;52.986;6.980;2023-05-20T09:35:22;19.20;99.90
52709;DHT22;38606;52.986;6.980;2023-05-20T09:37:51;19.50;99.90
52709;DHT22;38606;52.986;6.980;2023-05-20T09:40:23;19.50;99.90
52709;DHT22;38606;52.986;6.980;2023-05-20T09:42:53;19.50;99.90
52709;DHT22;38606;52.986;6.980;2023-05-20T09:45:20;19.50;98.90
52709;DHT22;38606;52.986;6.980;2023-05-20T09:47:49;19.50;98.30
52709;DHT22;38606;52.986;6.980;2023-05-20T09:50:15;19.40;98.40
52709;DHT22;38606;52.986;6.980;2023-05-20T09:52:42;19.50;98.20
52709;DHT22;38606;52.986;6.980;2023-05-20T09:55:09;19.50;98.00
52709;DHT22;38606;52.986;6.980;2023-05-20T09:57:36;19.40;97.70
52709;DHT22;38606;52.986;6.980;2023-05-20T10:00:03;19.70;97.90
52709;DHT22;38606;52.986;6.980;2023-05-20T10:02:32;19.80;96.50
52709;DHT22;38606;52.986;6.980;2023-05-20T10:05:00;18.60;96.60
52709;DHT22;38606;52.986;6.980;2023-05-20T10:13:16;19.90;95.90
52709;DHT22;38606;52.986;6.980;2023-05-20T10:21:16;20.20;94.30
52709;DHT22;38606;52.986;6.980;2023-05-20T10:23:42;20.00;94.90
52709;DHT22;38606;52.986;6.980;2023-05-20T10:26:07;19.90;94.90
52709;DHT22;38606;52.986;6.980;2023-05-20T10:28:35;19.90;94.90
52709;DHT22;38606;52.986;6.980;2023-05-20T10:31:01;20.00;95.30
52709;DHT22;38606;52.986;6.980;2023-05-20T10:33:28;19.60;94.90
52709;DHT22;38606;52.986;6.980;2023-05-20T10:35:58;19.50;95.10
52709;DHT22;38606;52.986;6.980;2023-05-20T10:38:24;19.70;94.50
52709;DHT22;38606;52.986;6.980;2023-05-20T10:40:51;20.20;94.90
52709;DHT22;38606;52.986;6.980;2023-05-20T10:43:26;20.10;94.60
52709;DHT22;38606;52.986;6.980;2023-05-20T10:45:55;20.10;93.80
52709;DHT22;38606;52.986;6.980;2023-05-20T10:48:31;20.30;93.70
52709;DHT22;38606;52.986;6.980;2023-05-20T10:51:02;20.30;93.10
52709;DHT22;38606;52.986;6.980;2023-05-20T10:53:44;20.20;92.80
52709;DHT22;38606;52.986;6.980;2023-05-20T10:56:21;20.00;92.10
52709;DHT22;38606;52.986;6.980;2023-05-20T10:58:47;20.10;92.30
52709;DHT22;38606;52.986;6.980;2023-05-20T11:01:15;20.40;92.30
52709;DHT22;38606;52.986;6.980;2023-05-20T11:03:42;20.30;91.70
52709;DHT22;38606;52.986;6.980;2023-05-20T11:06:17;20.40;91.40
52709;DHT22;38606;52.986;6.980;2023-05-20T11:08:43;22.50;91.80
52709;DHT22;38606;52.986;6.980;2023-05-20T11:11:13;20.20;91.20
52709;DHT22;38606;52.986;6.980;2023-05-20T11:13:39;19.90;91.10
52709;DHT22;38606;52.986;6.980;2023-05-20T11:16:05;19.90;91.60
52709;DHT22;38606;52.986;6.980;2023-05-20T11:18:31;20.40;90.90
52709;DHT22;38606;52.986;6.980;2023-05-20T11:21:01;20.10;90.80
52709;DHT22;38606;52.986;6.980;2023-05-20T11:23:28;19.60;90.60
52709;DHT22;38606;52.986;6.980;2023-05-20T11:25:55;19.90;91.20
52709;DHT22;38606;52.986;6.980;2023-05-20T11:28:22;19.90;91.40
52709;DHT22;38606;52.986;6.980;2023-05-20T11:30:52;20.00;91.80
52709;DHT22;38606;52.986;6.980;2023-05-20T11:33:18;19.80;91.40
52709;DHT22;38606;52.986;6.980;2023-05-20T11:35:45;19.90;91.00
52709;DHT22;38606;52.986;6.980;2023-05-20T11:38:12;19.70;91.10
52709;DHT22;38606;52.986;6.980;2023-05-20T11:40:45;19.90;91.10
52709;DHT22;38606;52.986;6.980;2023-05-20T11:43:12;19.90;91.30
52709;DHT22;38606;52.986;6.980;2023-05-20T11:46:00;20.00;91.30
52709;DHT22;38606;52.986;6.980;2023-05-20T11:48:26;20.20;91.00
52709;DHT22;38606;52.986;6.980;2023-05-20T11:50:53;20.20;90.80
52709;DHT22;38606;52.986;6.980;2023-05-20T11:53:21;20.30;90.50
52709;DHT22;38606;52.986;6.980;2023-05-20T11:58:24;20.40;90.00
52709;DHT22;38606;52.986;6.980;2023-05-20T12:00:50;20.70;88.90
52709;DHT22;38606;52.986;6.980;2023-05-20T12:03:16;20.80;89.40
52709;DHT22;38606;52.986;6.980;2023-05-20T12:05:42;20.60;89.70
52709;DHT22;38606;52.986;6.980;2023-05-20T12:08:08;20.90;90.10
52709;DHT22;38606;52.986;6.980;2023-05-20T12:10:34;21.00;89.00
52709;DHT22;38606;52.986;6.980;2023-05-20T12:13:02;20.80;87.10
52709;DHT22;38606;52.986;6.980;2023-05-20T12:15:28;20.90;86.80
52709;DHT22;38606;52.986;6.980;2023-05-20T12:17:54;21.10;86.90
52709;DHT22;38606;52.986;6.980;2023-05-20T12:20:23;21.10;87.50
52709;DHT22;38606;52.986;6.980;2023-05-20T12:22:50;20.90;86.50
52709;DHT22;38606;52.986;6.980;2023-05-20T12:25:17;20.90;87.10
52709;DHT22;38606;52.986;6.980;2023-05-20T12:27:45;21.00;87.20
52709;DHT22;38606;52.986;6.980;2023-05-20T12:30:19;21.00;86.10
52709;DHT22;38606;52.986;6.980;2023-05-20T12:32:47;21.20;86.60
52709;DHT22;38606;52.986;6.980;2023-05-20T12:35:15;21.20;86.60
52709;DHT22;38606;52.986;6.980;2023-05-20T12:37:42;21.60;85.60
52709;DHT22;38606;52.986;6.980;2023-05-20T12:40:09;21.00;85.80
52709;DHT22;38606;52.986;6.980;2023-05-20T12:42:40;21.10;85.20
52709;DHT22;38606;52.986;6.980;2023-05-20T12:45:06;20.90;84.70
52709;DHT22;38606;52.986;6.980;2023-05-20T12:47:33;20.60;85.20
52709;DHT22;38606;52.986;6.980;2023-05-20T12:50:00;21.10;85.30
52709;DHT22;38606;52.986;6.980;2023-05-20T12:52:26;20.60;84.60
52709;DHT22;38606;52.986;6.980;2023-05-20T12:54:55;20.60;84.40
52709;DHT22;38606;52.986;6.980;2023-05-20T12:57:22;20.60;85.50
52709;DHT22;38606;52.986;6.980;2023-05-20T12:59:48;20.50;86.00
52709;DHT22;38606;52.986;6.980;2023-05-20T13:02:14;20.50;86.70
52709;DHT22;38606;52.986;6.980;2023-05-20T13:04:39;20.60;86.00
52709;DHT22;38606;52.986;6.980;2023-05-20T13:07:05;20.50;86.00
52709;DHT22;38606;52.986;6.980;2023-05-20T13:09:31;20.70;85.10
52709;DHT22;38606;52.986;6.980;2023-05-20T13:11:57;20.40;84.70
52709;DHT22;38606;52.986;6.980;2023-05-20T13:14:23;20.60;84.40
52709;DHT22;38606;52.986;6.980;2023-05-20T13:16:50;20.50;84.60
52709;DHT22;38606;52.986;6.980;2023-05-20T13:19:23;20.60;84.50
52709;DHT22;38606;52.986;6.980;2023-05-20T13:21:50;20.70;85.70
52709;DHT22;38606;52.986;6.980;2023-05-20T13:24:18;20.80;85.30
52709;DHT22;38606;52.986;6.980;2023-05-20T13:26:44;20.90;84.60
52709;DHT22;38606;52.986;6.980;2023-05-20T13:29:11;20.70;83.80
52709;DHT22;38606;52.986;6.980;2023-05-20T13:31:37;20.80;84.20
52709;DHT22;38606;52.986;6.980;2023-05-20T13:34:03;20.90;83.50
52709;DHT22;38606;52.986;6.980;2023-05-20T13:36:29;20.80;83.10
52709;DHT22;38606;52.986;6.980;2023-05-20T13:38:55;20.70;83.60
52709;DHT22;38606;52.986;6.980;2023-05-20T13:41:21;20.80;83.20
52709;DHT22;38606;52.986;6.980;2023-05-20T13:43:48;20.80;85.00
52709;DHT22;38606;52.986;6.980;2023-05-20T13:46:15;20.80;84.30
52709;DHT22;38606;52.986;6.980;2023-05-20T13:48:41;20.60;84.80
52709;DHT22;38606;52.986;6.980;2023-05-20T13:51:06;20.80;85.10
52709;DHT22;38606;52.986;6.980;2023-05-20T13:53:32;20.90;84.50
52709;DHT22;38606;52.986;6.980;2023-05-20T13:55:58;20.90;84.70
52709;DHT22;38606;52.986;6.980;2023-05-20T13:58:24;20.70;85.70
52709;DHT22;38606;52.986;6.980;2023-05-20T14:00:50;20.90;85.10
52709;DHT22;38606;52.986;6.980;2023-05-20T14:03:16;20.90;85.40
52709;DHT22;38606;52.986;6.980;2023-05-20T14:05:41;20.60;85.60
52709;DHT22;38606;52.986;6.980;2023-05-20T14:08:07;20.80;86.20
52709;DHT22;38606;52.986;6.980;2023-05-20T14:10:33;20.90;85.20
52709;DHT22;38606;52.986;6.980;2023-05-20T14:12:59;20.90;85.40
52709;DHT22;38606;52.986;6.980;2023-05-20T14:15:26;20.80;85.40
52709;DHT22;38606;52.986;6.980;2023-05-20T14:17:58;20.80;86.60
52709;DHT22;38606;52.986;6.980;2023-05-20T14:20:24;20.60;84.90
52709;DHT22;38606;52.986;6.980;2023-05-20T14:22:51;20.50;86.30
52709;DHT22;38606;52.986;6.980;2023-05-20T14:25:17;20.50;86.40
52709;DHT22;38606;52.986;6.980;2023-05-20T14:27:43;20.40;86.60
52709;DHT22;38606;52.986;6.980;2023-05-20T14:30:09;20.50;87.40
52709;DHT22;38606;52.986;6.980;2023-05-20T14:32:35;20.30;86.80
52709;DHT22;38606;52.986;6.980;2023-05-20T14:35:01;20.10;87.20
52709;DHT22;38606;52.986;6.980;2023-05-20T14:37:27;20.00;88.00
52709;DHT22;38606;52.986;6.980;2023-05-20T14:39:53;19.90;87.70
52709;DHT22;38606;52.986;6.980;2023-05-20T14:42:19;19.90;88.10
52709;DHT22;38606;52.986;6.980;2023-05-20T14:44:45;19.70;88.50
52709;DHT22;38606;52.986;6.980;2023-05-20T14:47:11;19.40;88.80
52709;DHT22;38606;52.986;6.980;2023-05-20T14:49:41;19.50;88.80
52709;DHT22;38606;52.986;6.980;2023-05-20T14:52:07;19.40;88.80
52709;DHT22;38606;52.986;6.980;2023-05-20T14:54:33;19.50;89.30
52709;DHT22;38606;52.986;6.980;2023-05-20T14:56:58;19.70;89.70
52709;DHT22;38606;52.986;6.980;2023-05-20T14:59:24;19.50;90.10
52709;DHT22;38606;52.986;6.980;2023-05-20T15:01:50;19.50;90.20
52709;DHT22;38606;52.986;6.980;2023-05-20T15:04:16;19.30;90.50
52709;DHT22;38606;52.986;6.980;2023-05-20T15:06:41;19.60;90.80
52709;DHT22;38606;52.986;6.980;2023-05-20T15:09:07;19.50;90.70
52709;DHT22;38606;52.986;6.980;2023-05-20T15:11:33;19.30;90.70
52709;DHT22;38606;52.986;6.980;2023-05-20T15:13:58;19.30;90.80
52709;DHT22;38606;52.986;6.980;2023-05-20T15:16:24;19.50;90.90
52709;DHT22;38606;52.986;6.980;2023-05-20T15:18:50;19.30;90.90
52709;DHT22;38606;52.986;6.980;2023-05-20T15:21:16;19.30;91.10
52709;DHT22;38606;52.986;6.980;2023-05-20T15:23:42;19.20;91.10
52709;DHT22;38606;52.986;6.980;2023-05-20T15:26:08;19.30;91.20
52709;DHT22;38606;52.986;6.980;2023-05-20T15:28:37;19.30;91.50
52709;DHT22;38606;52.986;6.980;2023-05-20T15:31:02;19.20;91.40
52709;DHT22;38606;52.986;6.980;2023-05-20T15:33:28;19.30;91.50
52709;DHT22;38606;52.986;6.980;2023-05-20T15:35:54;19.40;91.30
52709;DHT22;38606;52.986;6.980;2023-05-20T15:38:20;19.50;91.40
52709;DHT22;38606;52.986;6.980;2023-05-20T15:40:45;19.30;91.30
52709;DHT22;38606;52.986;6.980;2023-05-20T15:43:11;19.50;91.50